createdAt,value
2017-09-26T00:00:14.649Z,70.70
2017-09-26T00:02:49.194Z,70.30
2017-09-26T00:05:23.787Z,70.30
2017-09-26T00:07:58.347Z,70.30
2017-09-26T00:10:32.846Z,70.40
2017-09-26T00:13:07.433Z,70.30
2017-09-26T00:15:42.032Z,70.20
2017-09-26T00:18:17.311Z,69.90
2017-09-26T00:20:51.767Z,69.90
2017-09-26T00:23:26.315Z,69.60
2017-09-26T00:26:00.938Z,69.60
2017-09-26T00:28:35.626Z,69.60
2017-09-26T00:31:10.131Z,69.60
2017-09-26T00:33:44.393Z,69.60
2017-09-26T00:36:18.779Z,69.80
2017-09-26T00:38:53.384Z,70.00
2017-09-26T00:41:27.638Z,70.30
2017-09-26T00:44:02.286Z,70.60
2017-09-26T00:46:36.904Z,70.80
2017-09-26T00:49:12.230Z,71.10
2017-09-26T00:51:46.781Z,71.10
2017-09-26T00:54:21.386Z,71.10
2017-09-26T00:56:55.935Z,71.20
2017-09-26T00:59:30.242Z,71.40
2017-09-26T01:02:04.590Z,71.50
2017-09-26T01:04:57.644Z,71.50
2017-09-26T01:07:35.631Z,71.40
2017-09-26T01:10:14.902Z,71.70
2017-09-26T01:12:49.540Z,71.90
2017-09-26T01:15:24.070Z,72.00
2017-09-26T01:17:58.707Z,72.00
2017-09-26T01:20:32.441Z,72.10
2017-09-26T01:23:06.782Z,72.30
2017-09-26T01:25:41.361Z,72.20
2017-09-26T01:28:16.770Z,72.00
2017-09-26T01:30:51.358Z,71.90
2017-09-26T01:33:26.833Z,72.10
2017-09-26T01:36:01.512Z,72.10
2017-09-26T01:38:36.089Z,72.10
2017-09-26T01:41:21.857Z,72.10
2017-09-26T01:43:56.446Z,72.20
2017-09-26T01:46:31.058Z,72.40
2017-09-26T01:49:05.533Z,72.70
2017-09-26T01:51:39.921Z,73.00
2017-09-26T01:54:14.377Z,73.20
2017-09-26T01:56:56.253Z,73.40
2017-09-26T01:59:34.062Z,73.60
2017-09-26T02:02:08.593Z,74.00
2017-09-26T02:04:43.258Z,73.90
2017-09-26T02:07:17.832Z,73.80
2017-09-26T02:09:52.414Z,73.50
2017-09-26T02:12:26.794Z,73.40
2017-09-26T02:17:42.198Z,73.60
2017-09-26T02:20:16.809Z,73.70
2017-09-26T02:22:51.309Z,73.60
2017-09-26T02:25:25.979Z,73.60
2017-09-26T02:28:00.422Z,73.50
2017-09-26T02:30:34.793Z,73.40
2017-09-26T02:33:09.458Z,73.40
2017-09-26T02:35:43.958Z,73.20
2017-09-26T02:38:18.442Z,73.20
2017-09-26T02:40:53.028Z,73.20
2017-09-26T02:43:27.498Z,72.90
2017-09-26T02:46:02.010Z,73.10
2017-09-26T02:48:36.739Z,73.10
2017-09-26T02:51:11.491Z,73.00
2017-09-26T02:53:45.963Z,72.90
2017-09-26T02:56:20.582Z,72.50
2017-09-26T02:58:55.249Z,72.50
2017-09-26T03:01:29.992Z,72.50
2017-09-26T03:04:04.526Z,72.50
2017-09-26T03:06:39.163Z,72.80
2017-09-26T03:09:13.607Z,72.60
2017-09-26T03:11:48.120Z,72.60
2017-09-26T03:14:22.602Z,72.50
2017-09-26T03:16:57.182Z,72.60
2017-09-26T03:19:31.635Z,72.60
2017-09-26T03:22:06.147Z,72.50
2017-09-26T03:24:40.863Z,72.50
2017-09-26T03:27:15.384Z,72.50
2017-09-26T03:29:50.047Z,72.60
2017-09-26T03:32:24.600Z,72.90
2017-09-26T03:34:58.986Z,72.90
2017-09-26T03:37:33.430Z,72.80
2017-09-26T03:40:14.706Z,72.60
2017-09-26T03:42:49.248Z,72.60
2017-09-26T03:45:23.567Z,72.60
2017-09-26T03:47:58.036Z,72.80
2017-09-26T03:50:32.490Z,73.10
2017-09-26T03:53:06.766Z,73.20
2017-09-26T03:55:41.300Z,73.10
2017-09-26T03:58:15.591Z,73.20
2017-09-26T04:00:50.130Z,73.30
2017-09-26T04:03:24.631Z,73.20
2017-09-26T04:05:58.958Z,73.20
2017-09-26T04:08:33.278Z,73.10
2017-09-26T04:11:08.005Z,72.90
2017-09-26T04:13:42.637Z,72.80
2017-09-26T04:16:17.131Z,73.10
2017-09-26T04:18:51.470Z,73.10
2017-09-26T04:21:26.073Z,73.10
2017-09-26T04:24:00.606Z,73.20
2017-09-26T04:26:35.362Z,73.20
2017-09-26T04:29:10.018Z,73.30
2017-09-26T04:31:44.702Z,73.50
2017-09-26T04:34:19.322Z,73.40
2017-09-26T04:36:53.935Z,73.70
2017-09-26T04:39:28.580Z,73.80
2017-09-26T04:42:02.905Z,73.80
2017-09-26T04:44:37.302Z,74.10
2017-09-26T04:47:11.842Z,74.30
2017-09-26T04:49:46.562Z,74.60
2017-09-26T04:52:21.157Z,74.50
2017-09-26T04:54:55.594Z,74.40
2017-09-26T04:57:30.287Z,74.50
2017-09-26T05:00:14.382Z,74.60
2017-09-26T05:02:48.958Z,74.70
2017-09-26T05:05:23.322Z,75.00
2017-09-26T05:07:57.838Z,75.50
2017-09-26T05:10:32.262Z,76.10
2017-09-26T05:13:06.730Z,76.30
2017-09-26T05:15:41.434Z,76.10
2017-09-26T05:18:15.925Z,76.00
2017-09-26T05:20:50.499Z,75.70
2017-09-26T05:23:25.166Z,75.70
2017-09-26T05:25:59.730Z,75.60
2017-09-26T05:28:34.420Z,75.40
2017-09-26T05:31:08.942Z,75.30
2017-09-26T05:33:43.490Z,75.00
2017-09-26T05:36:17.870Z,74.70
2017-09-26T05:38:52.507Z,74.50
2017-09-26T05:41:27.039Z,74.50
2017-09-26T05:44:01.551Z,74.40
2017-09-26T05:46:36.306Z,74.20
2017-09-26T05:49:10.859Z,74.20
2017-09-26T05:51:45.501Z,74.10
2017-09-26T05:54:20.911Z,74.10
2017-09-26T05:56:55.377Z,73.90
2017-09-26T05:59:30.581Z,74.00
2017-09-26T06:02:05.086Z,74.00
2017-09-26T06:04:39.734Z,74.00
2017-09-26T06:07:14.237Z,73.90
2017-09-26T06:09:48.751Z,73.40
2017-09-26T06:12:23.328Z,73.40
2017-09-26T06:14:57.826Z,73.40
2017-09-26T06:17:32.338Z,73.50
2017-09-26T06:20:15.118Z,73.40
2017-09-26T06:22:49.559Z,73.30
2017-09-26T06:25:24.067Z,73.40
2017-09-26T06:27:58.507Z,73.20
2017-09-26T06:30:33.127Z,73.00
2017-09-26T06:33:07.586Z,72.90
2017-09-26T06:35:42.219Z,72.90
2017-09-26T06:38:16.870Z,73.10
2017-09-26T06:40:51.430Z,73.00
2017-09-26T06:43:26.078Z,72.90
2017-09-26T06:46:00.719Z,72.80
2017-09-26T06:48:35.319Z,73.00
2017-09-26T06:51:09.948Z,72.60
2017-09-26T06:53:44.418Z,72.60
2017-09-26T06:56:19.634Z,72.40
2017-09-26T06:58:54.232Z,72.30
2017-09-26T07:01:29.599Z,72.40
2017-09-26T07:04:04.161Z,72.40
2017-09-26T07:06:39.732Z,73.20
2017-09-26T07:09:14.197Z,73.20
2017-09-26T07:11:48.745Z,72.70
2017-09-26T07:14:23.226Z,72.30
2017-09-26T07:16:57.771Z,72.10
2017-09-26T07:19:32.523Z,71.90
2017-09-26T07:22:07.094Z,71.70
2017-09-26T07:24:41.867Z,71.80
2017-09-26T07:27:16.528Z,71.80
2017-09-26T07:29:51.034Z,71.40
2017-09-26T07:32:26.335Z,70.40
2017-09-26T07:35:00.946Z,70.30
2017-09-26T07:37:35.489Z,70.10
2017-09-26T07:40:16.425Z,70.10
2017-09-26T07:42:50.948Z,68.90
2017-09-26T07:45:25.326Z,69.00
2017-09-26T07:47:59.630Z,68.90
2017-09-26T07:50:33.696Z,68.90
2017-09-26T07:53:08.951Z,68.50
2017-09-26T07:55:43.395Z,68.30
2017-09-26T07:58:18.132Z,67.90
2017-09-26T08:00:54.085Z,67.50
2017-09-26T08:03:29.246Z,67.20
2017-09-26T08:06:04.670Z,66.50
2017-09-26T08:08:40.157Z,66.00
2017-09-26T08:11:14.660Z,65.70
2017-09-26T08:13:49.196Z,65.50
2017-09-26T08:16:23.751Z,64.90
2017-09-26T08:18:58.246Z,64.10
2017-09-26T08:21:33.659Z,64.30
2017-09-26T08:24:08.215Z,64.20
2017-09-26T08:26:42.797Z,63.90
2017-09-26T08:29:17.519Z,63.40
2017-09-26T08:31:52.039Z,62.80
2017-09-26T08:34:26.658Z,61.80
2017-09-26T08:37:01.226Z,60.20
2017-09-26T08:39:35.965Z,59.60
2017-09-26T08:42:10.703Z,58.40
2017-09-26T08:44:45.206Z,58.40
2017-09-26T08:47:19.734Z,56.70
2017-09-26T08:49:54.447Z,54.20
2017-09-26T08:52:28.978Z,54.00
2017-09-26T08:57:48.259Z,53.70
2017-09-26T09:00:22.886Z,54.00
2017-09-26T09:02:57.510Z,53.90
2017-09-26T09:05:32.864Z,54.20
2017-09-26T09:08:07.642Z,54.30
2017-09-26T09:10:42.114Z,54.20
2017-09-26T09:13:16.646Z,54.20
2017-09-26T09:15:51.155Z,53.60
2017-09-26T09:18:25.600Z,53.60
2017-09-26T09:21:00.106Z,52.90
2017-09-26T09:23:34.747Z,52.50
2017-09-26T09:26:09.429Z,51.70
2017-09-26T09:28:44.107Z,50.90
2017-09-26T09:31:18.805Z,49.90
2017-09-26T09:33:53.466Z,47.90
2017-09-26T09:36:28.090Z,47.10
2017-09-26T09:39:02.810Z,43.90
2017-09-26T09:41:37.464Z,37.50
2017-09-26T09:44:11.981Z,36.20
2017-09-26T09:46:46.503Z,34.70
2017-09-26T09:49:21.303Z,33.50
2017-09-26T09:51:55.922Z,32.30
2017-09-26T09:54:30.393Z,32.80
2017-09-26T09:57:04.882Z,34.40
2017-09-26T09:59:39.524Z,34.60
2017-09-26T10:02:14.056Z,35.20
2017-09-26T10:04:48.635Z,36.00
2017-09-26T10:07:23.200Z,35.90
2017-09-26T10:09:57.841Z,36.80
2017-09-26T10:12:32.354Z,37.30
2017-09-26T10:15:15.453Z,37.90
2017-09-26T10:17:50.855Z,37.50
2017-09-26T10:20:25.497Z,37.40
2017-09-26T10:23:00.132Z,37.70
2017-09-26T10:25:34.710Z,37.60
2017-09-26T10:28:09.189Z,38.10
2017-09-26T10:30:43.719Z,38.50
2017-09-26T10:33:18.290Z,38.80
2017-09-26T10:35:52.817Z,38.90
2017-09-26T10:38:27.321Z,38.50
2017-09-26T10:41:02.038Z,38.20
2017-09-26T10:43:36.838Z,38.20
2017-09-26T10:46:11.383Z,37.90
2017-09-26T10:48:46.081Z,37.80
2017-09-26T10:51:20.579Z,37.50
2017-09-26T10:53:55.176Z,35.50
2017-09-26T10:56:29.682Z,33.70
2017-09-26T10:59:04.187Z,33.20
2017-09-26T11:01:38.857Z,32.00
2017-09-26T11:04:13.455Z,31.60
2017-09-26T11:06:47.978Z,30.90
2017-09-26T11:09:22.702Z,29.90
2017-09-26T11:11:57.279Z,29.40
2017-09-26T11:14:31.822Z,30.30
2017-09-26T11:17:06.363Z,30.60
2017-09-26T11:19:40.849Z,31.50
2017-09-26T11:22:16.267Z,33.00
2017-09-26T11:24:50.805Z,32.50
2017-09-26T11:27:25.334Z,32.30
2017-09-26T11:29:59.898Z,32.10
2017-09-26T11:32:34.497Z,31.90
2017-09-26T11:35:11.125Z,30.90
2017-09-26T11:37:45.700Z,29.40
2017-09-26T11:40:20.241Z,27.70
2017-09-26T11:42:54.858Z,26.60
2017-09-26T11:45:29.689Z,25.90
2017-09-26T11:48:04.293Z,25.50
2017-09-26T11:50:38.833Z,25.50
2017-09-26T11:53:13.322Z,25.80
2017-09-26T11:55:47.811Z,26.10
2017-09-26T11:58:22.430Z,25.90
2017-09-26T12:00:56.863Z,24.90
2017-09-26T12:03:31.579Z,23.80
2017-09-26T12:06:06.109Z,22.80
2017-09-26T12:08:40.585Z,23.00
2017-09-26T12:11:15.199Z,22.90
2017-09-26T12:13:56.115Z,23.00
2017-09-26T12:16:30.533Z,23.00
2017-09-26T12:19:05.774Z,23.00
2017-09-26T12:21:39.959Z,23.00
2017-09-26T12:24:14.582Z,22.90
2017-09-26T12:26:49.147Z,23.30
2017-09-26T12:29:24.539Z,22.60
2017-09-26T12:31:59.141Z,23.00
2017-09-26T12:34:33.603Z,23.60
2017-09-26T12:37:09.752Z,25.90
2017-09-26T12:39:44.118Z,25.90
2017-09-26T12:42:18.600Z,26.20
2017-09-26T12:44:53.226Z,27.30
2017-09-26T12:47:27.787Z,28.70
2017-09-26T12:50:02.431Z,29.90
2017-09-26T12:52:37.031Z,31.20
2017-09-26T12:55:15.656Z,32.00
2017-09-26T12:57:50.157Z,33.00
2017-09-26T13:00:25.702Z,34.10
2017-09-26T13:03:00.382Z,34.10
2017-09-26T13:05:34.987Z,34.70
2017-09-26T13:08:09.721Z,34.70
2017-09-26T13:10:44.178Z,35.40
2017-09-26T13:13:18.647Z,35.50
2017-09-26T13:15:53.198Z,35.60
2017-09-26T13:18:27.491Z,36.00
2017-09-26T13:21:01.887Z,36.30
2017-09-26T13:23:36.422Z,36.40
2017-09-26T13:26:11.382Z,37.70
2017-09-26T13:28:46.076Z,38.10
2017-09-26T13:31:20.510Z,37.80
2017-09-26T13:33:55.202Z,38.20
2017-09-26T13:36:29.802Z,37.80
2017-09-26T13:39:03.358Z,37.80
2017-09-26T13:41:38.798Z,38.30
2017-09-26T13:44:13.350Z,38.20
2017-09-26T13:46:47.822Z,37.80
2017-09-26T13:49:22.379Z,37.60
2017-09-26T13:51:57.006Z,37.30
2017-09-26T13:54:31.674Z,38.00
2017-09-26T13:57:06.690Z,38.10
2017-09-26T13:59:41.238Z,38.10
2017-09-26T14:02:15.775Z,37.90
2017-09-26T14:04:50.397Z,38.50
2017-09-26T14:07:26.499Z,39.50
2017-09-26T14:10:00.944Z,39.00
2017-09-26T14:12:35.562Z,39.70
2017-09-26T14:15:15.740Z,38.80
2017-09-26T14:17:51.052Z,39.30
2017-09-26T14:20:25.555Z,39.30
2017-09-26T14:22:59.951Z,39.50
2017-09-26T14:25:34.502Z,39.50
2017-09-26T14:28:09.139Z,39.60
2017-09-26T14:30:43.686Z,39.80
2017-09-26T14:33:18.209Z,39.90
2017-09-26T14:35:52.755Z,40.40
2017-09-26T14:38:27.191Z,39.90
2017-09-26T14:41:01.694Z,40.20
2017-09-26T14:43:36.194Z,40.30
2017-09-26T14:46:10.750Z,39.40
2017-09-26T14:48:45.390Z,39.50
2017-09-26T14:51:19.989Z,39.60
2017-09-26T14:53:54.494Z,41.70
2017-09-26T14:56:29.330Z,42.00
2017-09-26T14:59:04.128Z,41.80
2017-09-26T15:01:38.554Z,41.60
2017-09-26T15:04:13.073Z,41.40
2017-09-26T15:06:47.776Z,42.10
2017-09-26T15:09:22.294Z,42.60
2017-09-26T15:11:56.818Z,43.40
2017-09-26T15:14:31.348Z,43.90
2017-09-26T15:17:06.065Z,44.10
2017-09-26T15:19:40.718Z,44.00
2017-09-26T15:22:15.334Z,44.70
2017-09-26T15:24:49.959Z,45.20
2017-09-26T15:27:24.534Z,45.50
2017-09-26T15:29:59.188Z,45.90
2017-09-26T15:32:33.811Z,45.90
2017-09-26T15:35:12.064Z,46.10
2017-09-26T15:37:46.525Z,46.30
2017-09-26T15:40:21.031Z,46.80
2017-09-26T15:42:56.466Z,47.80
2017-09-26T15:45:30.996Z,47.80
2017-09-26T15:48:05.550Z,48.40
2017-09-26T15:50:40.031Z,48.60
2017-09-26T15:53:14.741Z,48.40
2017-09-26T15:55:49.273Z,48.40
2017-09-26T15:58:23.928Z,48.80
2017-09-26T16:00:58.455Z,48.70
2017-09-26T16:03:33.002Z,48.80
2017-09-26T16:06:07.583Z,49.00
2017-09-26T16:08:42.211Z,49.20
2017-09-26T16:11:16.766Z,49.30
2017-09-26T16:13:51.269Z,49.80
2017-09-26T16:16:25.810Z,49.80
2017-09-26T16:19:00.332Z,50.00
2017-09-26T16:21:35.043Z,50.20
2017-09-26T16:24:09.644Z,50.40
2017-09-26T16:26:44.241Z,50.50
2017-09-26T16:29:18.907Z,50.70
2017-09-26T16:31:53.462Z,50.90
2017-09-26T16:34:28.163Z,51.20
2017-09-26T16:37:02.621Z,51.20
2017-09-26T16:39:37.255Z,51.60
2017-09-26T16:42:11.867Z,51.70
2017-09-26T16:44:46.535Z,51.90
2017-09-26T16:47:21.133Z,52.20
2017-09-26T16:49:55.642Z,52.60
2017-09-26T16:52:30.106Z,52.90
2017-09-26T16:55:05.830Z,52.90
2017-09-26T16:57:40.338Z,53.00
2017-09-26T17:00:14.908Z,53.60
2017-09-26T17:02:49.562Z,53.80
2017-09-26T17:05:24.090Z,54.10
2017-09-26T17:07:58.630Z,54.40
2017-09-26T17:10:33.255Z,54.70
2017-09-26T17:13:07.946Z,55.00
2017-09-26T17:15:42.488Z,55.30
2017-09-26T17:18:16.962Z,55.40
2017-09-26T17:20:51.531Z,55.80
2017-09-26T17:23:26.165Z,55.80
2017-09-26T17:26:00.681Z,56.00
2017-09-26T17:28:35.198Z,56.40
2017-09-26T17:31:10.006Z,56.80
2017-09-26T17:33:44.562Z,57.10
2017-09-26T17:36:18.867Z,57.40
2017-09-26T17:38:53.366Z,57.90
2017-09-26T17:41:28.091Z,58.10
2017-09-26T17:44:02.754Z,58.50
2017-09-26T17:46:37.375Z,58.70
2017-09-26T17:49:11.851Z,58.90
2017-09-26T17:51:46.342Z,59.10
2017-09-26T17:54:20.849Z,59.30
2017-09-26T17:56:55.526Z,59.70
2017-09-26T17:59:30.854Z,60.30
2017-09-26T18:02:05.604Z,60.20
2017-09-26T18:04:40.222Z,60.30
2017-09-26T18:07:14.814Z,60.30
2017-09-26T18:09:49.320Z,60.30
2017-09-26T18:12:23.801Z,60.30
2017-09-26T18:14:58.475Z,60.30
2017-09-26T18:17:33.039Z,60.60
2017-09-26T18:20:09.499Z,61.00
2017-09-26T18:22:44.170Z,61.20
2017-09-26T18:25:18.687Z,61.40
2017-09-26T18:27:53.949Z,61.70
2017-09-26T18:30:28.426Z,61.70
2017-09-26T18:33:03.066Z,62.00
2017-09-26T18:35:37.659Z,62.30
2017-09-26T18:38:12.333Z,62.60
2017-09-26T18:40:46.826Z,62.80
2017-09-26T18:43:21.475Z,63.00
2017-09-26T18:45:56.846Z,63.40
2017-09-26T18:48:31.289Z,63.40
2017-09-26T18:51:05.927Z,63.90
2017-09-26T18:53:40.452Z,64.00
2017-09-26T18:56:15.026Z,64.20
2017-09-26T18:58:50.446Z,64.70
2017-09-26T19:01:25.084Z,64.70
2017-09-26T19:03:59.674Z,65.30
2017-09-26T19:06:34.274Z,65.60
2017-09-26T19:09:08.764Z,65.90
2017-09-26T19:11:43.302Z,65.90
2017-09-26T19:14:17.765Z,66.00
2017-09-26T19:16:52.349Z,66.10
2017-09-26T19:19:26.786Z,66.00
2017-09-26T19:22:01.410Z,66.50
2017-09-26T19:24:35.854Z,66.70
2017-09-26T19:27:10.525Z,66.80
2017-09-26T19:29:45.010Z,66.90
2017-09-26T19:32:19.691Z,67.00
2017-09-26T19:34:54.290Z,67.10
2017-09-26T19:37:28.841Z,67.10
2017-09-26T19:40:07.662Z,67.20
2017-09-26T19:42:42.296Z,67.40
2017-09-26T19:45:16.821Z,67.30
2017-09-26T19:47:51.298Z,67.40
2017-09-26T19:50:25.923Z,67.40
2017-09-26T19:53:00.772Z,67.50
2017-09-26T19:55:36.139Z,67.60
2017-09-26T19:58:10.705Z,67.60
2017-09-26T20:00:45.227Z,67.80
2017-09-26T20:03:19.880Z,67.90
2017-09-26T20:05:54.488Z,67.80
2017-09-26T20:08:29.062Z,67.70
2017-09-26T20:11:03.674Z,67.70
2017-09-26T20:13:38.579Z,67.70
2017-09-26T20:16:13.283Z,67.80
2017-09-26T20:18:47.951Z,67.70
2017-09-26T20:21:22.598Z,67.80
2017-09-26T20:23:57.246Z,67.80
2017-09-26T20:26:31.802Z,68.00
2017-09-26T20:29:06.419Z,68.10
2017-09-26T20:31:41.020Z,68.10
2017-09-26T20:34:15.573Z,68.10
2017-09-26T20:36:50.890Z,68.40
2017-09-26T20:39:25.361Z,68.40
2017-09-26T20:41:59.886Z,68.30
2017-09-26T20:44:34.375Z,68.60
2017-09-26T20:47:09.337Z,68.50
2017-09-26T20:49:43.868Z,69.10
2017-09-26T20:52:18.423Z,68.80
2017-09-26T20:54:52.876Z,68.80
2017-09-26T20:57:27.346Z,68.90
2017-09-26T21:00:01.806Z,68.90
2017-09-26T21:02:36.492Z,68.90
2017-09-26T21:05:13.954Z,68.80
2017-09-26T21:07:48.582Z,68.80
2017-09-26T21:10:23.086Z,68.80
2017-09-26T21:12:57.579Z,68.60
2017-09-26T21:15:32.212Z,68.60
2017-09-26T21:18:07.053Z,68.50
2017-09-26T21:20:41.687Z,68.50
2017-09-26T21:23:16.318Z,68.50
2017-09-26T21:25:50.855Z,68.90
2017-09-26T21:28:25.564Z,69.20
2017-09-26T21:31:01.001Z,69.40
2017-09-26T21:33:36.364Z,69.50
2017-09-26T21:36:11.704Z,69.70
2017-09-26T21:38:46.242Z,69.60
2017-09-26T21:41:20.842Z,69.80
2017-09-26T21:43:55.531Z,69.90
2017-09-26T21:46:30.139Z,70.00
2017-09-26T21:49:04.786Z,70.00
2017-09-26T21:51:39.671Z,69.90
2017-09-26T21:54:14.365Z,70.10
2017-09-26T21:56:48.874Z,70.10
2017-09-26T21:59:23.442Z,70.40
2017-09-26T22:01:57.972Z,70.40
2017-09-26T22:04:32.694Z,70.60
2017-09-26T22:07:07.240Z,70.60
2017-09-26T22:09:41.727Z,70.70
2017-09-26T22:12:16.366Z,70.80
2017-09-26T22:14:51.065Z,70.90
2017-09-26T22:17:25.571Z,71.00
2017-09-26T22:20:00.227Z,71.20
2017-09-26T22:22:34.785Z,71.30
2017-09-26T22:25:14.567Z,72.10
2017-09-26T22:27:48.993Z,71.50
2017-09-26T22:30:33.944Z,71.70
2017-09-26T22:33:08.423Z,71.80
2017-09-26T22:35:43.217Z,72.00
2017-09-26T22:38:17.782Z,72.10
2017-09-26T22:40:52.270Z,72.40
2017-09-26T22:43:26.834Z,72.40
2017-09-26T22:46:01.387Z,72.70
2017-09-26T22:48:36.054Z,72.70
2017-09-26T22:51:10.626Z,72.80
2017-09-26T22:53:45.242Z,72.50
2017-09-26T22:56:19.822Z,72.50
2017-09-26T22:58:54.367Z,72.50
2017-09-26T23:01:28.969Z,72.50
2017-09-26T23:04:03.612Z,72.30
2017-09-26T23:06:38.111Z,72.30
2017-09-26T23:09:14.167Z,72.10
2017-09-26T23:11:48.783Z,72.20
2017-09-26T23:14:23.375Z,72.20
2017-09-26T23:16:57.834Z,72.30
2017-09-26T23:19:32.532Z,72.40
2017-09-26T23:22:07.094Z,72.30
2017-09-26T23:24:41.578Z,72.30
2017-09-26T23:27:16.113Z,72.40
2017-09-26T23:29:50.579Z,72.50
2017-09-26T23:32:25.250Z,72.60
2017-09-26T23:34:59.862Z,72.70
2017-09-26T23:37:34.354Z,72.80
2017-09-26T23:40:16.163Z,72.80
2017-09-26T23:42:50.736Z,72.90
2017-09-26T23:45:25.325Z,73.10
2017-09-26T23:47:59.856Z,73.30
2017-09-26T23:50:34.453Z,73.40
2017-09-26T23:53:09.555Z,73.50
2017-09-26T23:55:44.038Z,73.40
2017-09-26T23:58:19.361Z,73.60
